createdAt,value
2022-08-01T00:01:54.564Z,2.10
2022-08-01T00:04:20.966Z,2.40
2022-08-01T00:06:47.342Z,1.98
2022-08-01T00:09:24.062Z,1.70
2022-08-01T00:11:59.708Z,1.92
2022-08-01T00:14:32.649Z,1.60
2022-08-01T00:17:03.724Z,1.52
2022-08-01T00:21:59.656Z,1.98
2022-08-01T00:24:26.080Z,1.80
2022-08-01T00:26:52.405Z,1.60
2022-08-01T00:30:11.966Z,1.85
2022-08-01T00:32:05.531Z,1.55
2022-08-01T00:34:32.169Z,1.77
2022-08-01T00:36:58.489Z,1.77
2022-08-01T00:39:24.873Z,1.70
2022-08-01T00:41:59.292Z,1.55
2022-08-01T00:44:27.089Z,1.80
2022-08-01T00:46:53.425Z,1.70
2022-08-01T00:49:19.772Z,1.70
2022-08-01T00:51:46.229Z,2.10
2022-08-01T00:54:13.230Z,1.85
2022-08-01T00:56:42.940Z,2.00
2022-08-01T00:59:09.914Z,1.67
2022-08-01T01:01:39.939Z,1.60
2022-08-01T01:04:08.652Z,1.58
2022-08-01T01:06:41.509Z,1.80
2022-08-01T01:09:26.725Z,1.75
2022-08-01T01:12:01.271Z,1.60
2022-08-01T01:14:50.871Z,1.80
2022-08-01T01:17:18.545Z,1.67
2022-08-01T01:20:06.426Z,1.90
2022-08-01T01:22:48.430Z,2.30
2022-08-01T01:25:17.643Z,2.00
2022-08-01T01:27:49.967Z,2.00
2022-08-01T01:30:16.638Z,2.00
2022-08-01T01:32:45.623Z,1.60
2022-08-01T01:35:16.205Z,1.98
2022-08-01T01:37:42.874Z,1.90
2022-08-01T01:40:10.565Z,2.00
2022-08-01T01:42:37.017Z,2.10
2022-08-01T01:45:04.366Z,2.03
2022-08-01T01:47:31.895Z,1.85
2022-08-01T01:49:59.117Z,2.03
2022-08-01T01:52:25.980Z,1.83
2022-08-01T01:54:53.342Z,1.70
2022-08-01T01:57:20.254Z,2.00
2022-08-01T01:59:47.050Z,1.67
2022-08-01T02:02:15.174Z,2.00
2022-08-01T02:04:43.655Z,2.10
2022-08-01T02:07:11.050Z,2.10
2022-08-01T02:09:38.631Z,1.80
2022-08-01T02:12:08.954Z,2.00
2022-08-01T02:14:38.761Z,2.00
2022-08-01T02:17:05.383Z,1.95
2022-08-01T02:19:31.925Z,1.70
2022-08-01T02:22:10.714Z,1.70
2022-08-01T02:24:51.037Z,2.10
2022-08-01T02:27:21.816Z,1.70
2022-08-01T02:29:53.051Z,2.08
2022-08-01T02:32:31.853Z,1.80
2022-08-01T02:34:58.537Z,2.53
2022-08-01T02:37:27.246Z,1.80
2022-08-01T02:39:55.001Z,1.70
2022-08-01T02:42:22.093Z,2.10
2022-08-01T02:44:49.158Z,1.92
2022-08-01T02:47:16.544Z,2.05
2022-08-01T02:49:44.035Z,1.95
2022-08-01T02:52:17.035Z,1.65
2022-08-01T02:54:45.036Z,1.92
2022-08-01T02:57:13.827Z,1.80
2022-08-01T02:59:41.441Z,2.05
2022-08-01T03:02:09.766Z,2.30
2022-08-01T03:04:37.592Z,1.90
2022-08-01T03:07:05.053Z,2.25
2022-08-01T03:09:32.961Z,2.13
2022-08-01T03:12:01.690Z,1.88
2022-08-01T03:14:29.234Z,1.88
2022-08-01T03:16:56.195Z,1.77
2022-08-01T03:19:23.865Z,2.15
2022-08-01T03:21:50.690Z,2.00
2022-08-01T03:24:17.434Z,2.10
2022-08-01T03:26:44.486Z,2.10
2022-08-01T03:29:16.520Z,1.92
2022-08-01T03:31:44.529Z,1.83
2022-08-01T03:34:11.118Z,2.00
2022-08-01T03:36:43.289Z,1.70
2022-08-01T03:39:10.629Z,2.00
2022-08-01T03:41:39.948Z,2.38
2022-08-01T03:44:08.534Z,1.85
2022-08-01T03:46:43.433Z,1.90
2022-08-01T03:49:12.874Z,1.52
2022-08-01T03:51:39.337Z,1.50
2022-08-01T03:54:06.118Z,1.70
2022-08-01T03:56:33.290Z,1.88
2022-08-01T03:59:00.698Z,2.08
2022-08-01T04:01:27.654Z,1.90
2022-08-01T04:03:54.384Z,2.10
2022-08-01T04:06:21.513Z,1.98
2022-08-01T04:08:56.290Z,2.03
2022-08-01T04:11:24.794Z,2.20
2022-08-01T04:13:52.296Z,1.80
2022-08-01T04:16:19.282Z,2.42
2022-08-01T04:18:45.750Z,1.92
2022-08-01T04:21:12.560Z,2.28
2022-08-01T04:23:39.225Z,2.00
2022-08-01T04:26:06.174Z,1.95
2022-08-01T04:28:36.883Z,2.38
2022-08-01T04:31:05.685Z,2.17
2022-08-01T04:33:33.207Z,2.10
2022-08-01T04:36:04.009Z,2.15
2022-08-01T04:38:32.758Z,2.25
2022-08-01T04:40:59.501Z,2.10
2022-08-01T04:43:35.367Z,2.42
2022-08-01T04:46:04.642Z,2.40
2022-08-01T04:48:32.176Z,2.13
2022-08-01T04:50:58.557Z,2.30
2022-08-01T04:53:25.121Z,2.35
2022-08-01T04:55:51.445Z,2.28
2022-08-01T04:58:18.949Z,2.60
2022-08-01T05:00:45.958Z,2.50
2022-08-01T05:03:12.350Z,2.65
2022-08-01T05:05:38.714Z,2.55
2022-08-01T05:08:06.991Z,2.70
2022-08-01T05:10:33.465Z,2.60
2022-08-01T05:12:59.825Z,2.70
2022-08-01T05:15:26.251Z,2.60
2022-08-01T05:17:52.609Z,2.65
2022-08-01T05:20:19.039Z,2.40
2022-08-01T05:22:45.418Z,2.95
2022-08-01T05:25:12.202Z,2.63
2022-08-01T05:27:41.684Z,2.65
2022-08-01T05:30:09.210Z,3.20
2022-08-01T05:32:35.585Z,2.70
2022-08-01T05:35:01.957Z,2.70
2022-08-01T05:37:28.347Z,2.88
2022-08-01T05:39:54.710Z,2.60
2022-08-01T05:42:21.165Z,2.75
2022-08-01T05:44:48.450Z,2.75
2022-08-01T05:47:14.834Z,2.70
2022-08-01T05:49:41.163Z,2.63
2022-08-01T05:52:08.505Z,2.50
2022-08-01T05:54:35.193Z,2.65
2022-08-01T05:57:02.602Z,2.90
2022-08-01T05:59:29.694Z,2.60
2022-08-01T06:01:56.249Z,2.50
2022-08-01T06:04:22.629Z,2.50
2022-08-01T06:06:49.133Z,2.72
2022-08-01T06:09:15.460Z,2.30
2022-08-01T06:11:41.932Z,2.50
2022-08-01T06:14:08.508Z,2.30
2022-08-01T06:16:34.863Z,2.10
2022-08-01T06:19:01.238Z,2.55
2022-08-01T06:21:27.584Z,2.20
2022-08-01T06:23:53.948Z,2.30
2022-08-01T06:26:20.415Z,2.20
2022-08-01T06:28:46.835Z,2.50
2022-08-01T06:31:14.685Z,3.30
2022-08-01T06:33:41.139Z,3.60
2022-08-01T06:36:07.472Z,3.70
2022-08-01T06:38:33.825Z,3.65
2022-08-01T06:41:00.189Z,4.40
2022-08-01T06:43:26.586Z,4.05
2022-08-01T06:45:52.958Z,3.45
2022-08-01T06:48:19.304Z,3.60
2022-08-01T06:50:45.730Z,3.67
2022-08-01T06:53:12.154Z,3.20
2022-08-01T06:55:39.652Z,2.80
2022-08-01T06:58:05.982Z,3.00
2022-08-01T07:00:32.354Z,3.38
2022-08-01T07:03:00.381Z,3.53
2022-08-01T07:05:26.741Z,3.60
2022-08-01T07:07:53.278Z,3.60
2022-08-01T07:10:19.773Z,3.72
2022-08-01T07:12:46.153Z,4.00
2022-08-01T07:15:12.668Z,4.22
2022-08-01T07:17:39.874Z,5.25
2022-08-01T07:20:07.502Z,4.40
2022-08-01T07:22:37.301Z,4.80
2022-08-01T07:25:04.876Z,4.22
2022-08-01T07:27:31.377Z,4.30
2022-08-01T07:29:57.953Z,3.72
2022-08-01T07:32:24.397Z,4.15
2022-08-01T07:34:50.963Z,4.00
2022-08-01T07:37:17.452Z,3.92
2022-08-01T07:40:05.392Z,4.15
2022-08-01T07:42:32.185Z,4.70
2022-08-01T07:44:58.547Z,4.22
2022-08-01T07:47:25.577Z,4.65
2022-08-01T07:49:52.279Z,4.60
2022-08-01T07:52:19.099Z,4.80
2022-08-01T07:54:49.248Z,5.30
2022-08-01T07:57:18.486Z,6.10
2022-08-01T07:59:44.846Z,6.15
2022-08-01T08:02:11.744Z,6.07
2022-08-01T08:04:38.373Z,6.22
2022-08-01T08:07:05.009Z,6.10
2022-08-01T08:09:31.834Z,6.03
2022-08-01T08:12:04.855Z,5.93
2022-08-01T08:14:32.775Z,5.45
2022-08-01T08:16:59.353Z,5.30
2022-08-01T08:19:37.919Z,5.18
2022-08-01T08:22:05.708Z,4.82
2022-08-01T08:24:32.332Z,4.68
2022-08-01T08:26:59.979Z,4.88
2022-08-01T08:29:27.278Z,4.72
2022-08-01T08:31:54.226Z,4.32
2022-08-01T08:34:20.840Z,4.30
2022-08-01T08:36:48.286Z,4.18
2022-08-01T08:39:16.559Z,4.53
2022-08-01T08:41:46.042Z,4.80
2022-08-01T08:44:17.042Z,4.38
2022-08-01T08:46:44.857Z,4.40
2022-08-01T08:49:12.780Z,4.35
2022-08-01T08:51:39.790Z,4.90
2022-08-01T08:54:06.937Z,4.43
2022-08-01T08:56:35.244Z,4.78
2022-08-01T08:59:02.962Z,4.57
2022-08-01T09:01:29.326Z,4.20
2022-08-01T09:03:55.680Z,4.65
2022-08-01T09:06:31.881Z,4.53
2022-08-01T09:08:58.457Z,4.03
2022-08-01T09:11:25.101Z,4.65
2022-08-01T09:14:09.781Z,3.97
2022-08-01T09:16:37.363Z,3.88
2022-08-01T09:19:16.165Z,4.30
2022-08-01T09:21:59.069Z,4.30
2022-08-01T09:24:30.631Z,4.30
2022-08-01T09:26:58.072Z,4.50
2022-08-01T09:29:37.147Z,4.60
2022-08-01T09:32:06.306Z,4.80
2022-08-01T09:34:33.876Z,4.53
2022-08-01T09:37:02.048Z,4.80
2022-08-01T09:39:30.756Z,4.80
2022-08-01T09:41:57.880Z,4.35
2022-08-01T09:44:43.622Z,4.53
2022-08-01T09:47:11.719Z,4.20
2022-08-01T09:49:50.488Z,4.80
2022-08-01T09:52:20.373Z,4.30
2022-08-01T09:57:19.249Z,4.22
2022-08-01T09:59:58.310Z,4.15
2022-08-01T10:02:34.090Z,3.92
2022-08-01T10:05:03.652Z,3.47
2022-08-01T10:07:42.884Z,3.85
2022-08-01T10:10:15.059Z,3.92
2022-08-01T10:12:45.472Z,4.00
2022-08-01T10:15:13.351Z,4.28
2022-08-01T10:17:50.851Z,3.83
2022-08-01T10:20:28.919Z,3.75
2022-08-01T10:22:59.690Z,3.63
2022-08-01T10:25:42.737Z,3.97
2022-08-01T10:28:23.645Z,3.30
2022-08-01T10:30:51.150Z,4.13
2022-08-01T10:33:51.665Z,4.00
2022-08-01T10:36:09.601Z,3.90
2022-08-01T10:38:36.556Z,3.60
2022-08-01T10:41:06.064Z,3.58
2022-08-01T10:43:33.359Z,3.20
2022-08-01T10:46:02.829Z,2.97
2022-08-01T10:48:39.741Z,3.00
2022-08-01T10:51:17.944Z,3.10
2022-08-01T10:53:50.831Z,2.90
2022-08-01T10:56:22.584Z,3.35
2022-08-01T10:59:01.222Z,3.37
2022-08-01T11:01:29.893Z,3.30
2022-08-01T11:03:59.020Z,3.20
2022-08-01T11:06:29.225Z,3.50
2022-08-01T11:08:58.327Z,3.33
2022-08-01T11:11:27.327Z,3.40
2022-08-01T11:14:12.682Z,3.00
2022-08-01T11:16:40.714Z,2.90
2022-08-01T11:19:09.086Z,2.80
2022-08-01T11:22:04.730Z,2.80
2022-08-01T11:24:49.848Z,2.80
2022-08-01T11:27:23.896Z,2.90
2022-08-01T11:30:09.162Z,2.30
2022-08-01T11:33:06.888Z,2.83
2022-08-01T11:35:37.083Z,3.10
2022-08-01T11:38:22.335Z,2.90
2022-08-01T11:41:08.644Z,3.13
2022-08-01T11:43:35.018Z,3.10
2022-08-01T11:46:01.530Z,3.58
2022-08-01T11:48:28.806Z,3.40
2022-08-01T11:50:57.565Z,3.55
2022-08-01T11:53:24.257Z,3.20
2022-08-01T11:55:54.066Z,3.33
2022-08-01T11:58:29.416Z,3.40
2022-08-01T12:00:58.833Z,3.17
2022-08-01T12:03:34.018Z,3.25
2022-08-01T12:06:00.970Z,3.20
2022-08-01T12:08:27.305Z,3.33
2022-08-01T12:11:02.275Z,3.40
2022-08-01T12:13:39.698Z,3.20
2022-08-01T12:16:09.821Z,3.35
2022-08-01T12:18:40.783Z,3.30
2022-08-01T12:21:07.194Z,3.03
2022-08-01T12:23:33.582Z,3.20
2022-08-01T12:26:01.317Z,3.13
2022-08-01T12:28:27.885Z,3.55
2022-08-01T12:30:54.512Z,2.85
2022-08-01T12:33:21.798Z,2.67
2022-08-01T12:35:48.281Z,2.60
2022-08-01T12:38:15.950Z,2.58
2022-08-01T12:40:45.639Z,2.53
2022-08-01T12:43:27.403Z,2.25
2022-08-01T12:45:57.405Z,2.50
2022-08-01T12:48:24.623Z,2.47
2022-08-01T12:50:53.111Z,2.35
2022-08-01T12:53:21.688Z,2.40
2022-08-01T12:55:59.585Z,2.50
2022-08-01T12:58:35.689Z,2.50
2022-08-01T13:01:10.032Z,2.40
2022-08-01T13:03:36.977Z,2.40
2022-08-01T13:06:11.075Z,2.40
2022-08-01T13:08:39.277Z,2.23
2022-08-01T13:11:09.454Z,2.40
2022-08-01T13:13:43.718Z,2.65
2022-08-01T13:16:16.248Z,2.40
2022-08-01T13:18:57.195Z,2.50
2022-08-01T13:21:24.556Z,2.47
2022-08-01T13:24:04.634Z,2.40
2022-08-01T13:26:40.328Z,2.30
2022-08-01T13:29:08.498Z,2.53
2022-08-01T13:31:35.682Z,2.30
2022-08-01T13:34:02.446Z,2.47
2022-08-01T13:36:29.705Z,2.72
2022-08-01T13:39:14.910Z,2.90
2022-08-01T13:41:41.277Z,3.00
2022-08-01T13:44:09.753Z,3.40
2022-08-01T13:46:36.268Z,3.47
2022-08-01T13:49:16.000Z,3.33
2022-08-01T13:51:43.315Z,3.90
2022-08-01T13:54:09.831Z,3.50
2022-08-01T13:56:36.237Z,3.90
2022-08-01T13:59:03.182Z,3.85
2022-08-01T14:01:33.838Z,3.88
2022-08-01T14:04:01.204Z,3.83
2022-08-01T14:06:27.728Z,3.53
2022-08-01T14:08:54.277Z,3.70
2022-08-01T14:11:21.420Z,3.60
2022-08-01T14:13:47.917Z,3.53
2022-08-01T14:16:14.872Z,3.22
2022-08-01T14:18:41.987Z,3.35
2022-08-01T14:21:10.993Z,3.35
2022-08-01T14:23:37.460Z,3.53
2022-08-01T14:26:08.419Z,3.40
2022-08-01T14:28:39.227Z,3.17
2022-08-01T14:31:08.930Z,3.53
2022-08-01T14:33:35.352Z,3.38
2022-08-01T14:36:28.586Z,3.33
2022-08-01T14:38:48.481Z,3.28
2022-08-01T14:41:15.335Z,3.28
2022-08-01T14:43:41.682Z,3.30
2022-08-01T14:46:10.663Z,3.58
2022-08-01T14:48:36.995Z,3.30
2022-08-01T14:51:03.961Z,3.58
2022-08-01T14:53:30.869Z,3.85
2022-08-01T14:55:57.361Z,3.72
2022-08-01T14:58:23.758Z,3.70
2022-08-01T15:00:51.038Z,3.33
2022-08-01T15:03:18.758Z,3.55
2022-08-01T15:05:45.090Z,3.70
2022-08-01T15:08:11.442Z,3.70
2022-08-01T15:10:37.785Z,3.33
2022-08-01T15:13:04.124Z,3.58
2022-08-01T15:15:30.481Z,3.40
2022-08-01T15:17:57.122Z,3.65
2022-08-01T15:20:23.722Z,3.67
2022-08-01T15:22:50.117Z,3.47
2022-08-01T15:25:16.444Z,3.67
2022-08-01T15:27:43.357Z,3.35
2022-08-01T15:30:09.935Z,2.80
2022-08-01T15:32:36.414Z,3.05
2022-08-01T15:35:02.911Z,3.00
2022-08-01T15:37:29.294Z,2.78
2022-08-01T15:39:56.489Z,2.80
2022-08-01T15:42:25.683Z,2.75
2022-08-01T15:44:53.977Z,2.80
2022-08-01T15:47:20.331Z,2.85
2022-08-01T15:49:46.718Z,3.05
2022-08-01T15:52:21.730Z,3.00
2022-08-01T15:54:48.897Z,2.90
2022-08-01T15:57:15.201Z,3.00
2022-08-01T15:59:42.043Z,3.10
2022-08-01T16:02:08.866Z,3.20
2022-08-01T16:04:35.459Z,3.20
2022-08-01T16:07:05.317Z,3.40
2022-08-01T16:09:31.724Z,3.25
2022-08-01T16:11:58.081Z,3.38
2022-08-01T16:14:24.511Z,3.17
2022-08-01T16:16:50.893Z,3.25
2022-08-01T16:19:19.093Z,3.17
2022-08-01T16:21:47.776Z,3.58
2022-08-01T16:24:14.518Z,3.70
2022-08-01T16:26:41.112Z,3.33
2022-08-01T16:29:07.558Z,2.97
2022-08-01T16:31:51.740Z,3.75
2022-08-01T16:34:21.195Z,3.70
2022-08-01T16:36:50.179Z,3.90
2022-08-01T16:39:21.015Z,3.85
2022-08-01T16:41:49.360Z,3.47
2022-08-01T16:44:16.184Z,3.47
2022-08-01T16:46:53.451Z,3.75
2022-08-01T16:49:19.834Z,3.55
2022-08-01T16:51:48.201Z,3.45
2022-08-01T16:54:25.084Z,3.47
2022-08-01T16:56:52.868Z,3.40
2022-08-01T16:59:19.184Z,3.70
2022-08-01T17:01:59.495Z,3.42
2022-08-01T17:04:28.299Z,3.22
2022-08-01T17:06:54.852Z,3.40
2022-08-01T17:09:21.330Z,3.10
2022-08-01T17:11:47.730Z,3.30
2022-08-01T17:14:14.542Z,3.30
2022-08-01T17:16:41.374Z,3.33
2022-08-01T17:19:07.778Z,3.08
2022-08-01T17:21:34.115Z,2.70
2022-08-01T17:24:00.470Z,2.50
2022-08-01T17:26:26.870Z,2.80
2022-08-01T17:28:53.259Z,3.03
2022-08-01T17:31:19.607Z,2.80
2022-08-01T17:33:48.643Z,3.10
2022-08-01T17:36:21.151Z,2.97
2022-08-01T17:38:47.592Z,3.22
2022-08-01T17:41:14.090Z,3.13
2022-08-01T17:43:40.531Z,3.70
2022-08-01T17:46:07.121Z,3.55
2022-08-01T17:48:33.487Z,3.40
2022-08-01T17:50:59.836Z,3.72
2022-08-01T17:53:26.194Z,3.60
2022-08-01T17:55:55.581Z,3.20
2022-08-01T17:58:45.041Z,3.50
2022-08-01T18:01:11.026Z,3.35
2022-08-01T18:03:40.834Z,3.45
2022-08-01T18:06:07.761Z,3.33
2022-08-01T18:08:34.306Z,3.20
2022-08-01T18:11:00.701Z,3.10
2022-08-01T18:13:27.101Z,3.35
2022-08-01T18:15:56.591Z,3.42
2022-08-01T18:18:33.688Z,3.28
2022-08-01T18:21:01.035Z,3.40
2022-08-01T18:23:27.435Z,3.40
2022-08-01T18:25:53.876Z,3.63
2022-08-01T18:28:31.432Z,3.75
2022-08-01T18:31:00.365Z,3.65
2022-08-01T18:33:26.739Z,3.90
2022-08-01T18:35:53.904Z,3.80
2022-08-01T18:38:20.541Z,3.97
2022-08-01T18:40:50.542Z,3.95
2022-08-01T18:43:16.896Z,4.10
2022-08-01T18:45:43.367Z,3.90
2022-08-01T18:48:10.102Z,4.00
2022-08-01T18:50:36.472Z,4.00
2022-08-01T18:53:02.774Z,3.70
2022-08-01T18:55:29.225Z,3.88
2022-08-01T18:57:55.596Z,3.30
2022-08-01T19:00:21.946Z,3.47
2022-08-01T19:02:48.326Z,3.83
2022-08-01T19:05:14.653Z,3.63
2022-08-01T19:08:06.931Z,3.47
2022-08-01T19:10:27.421Z,3.63
2022-08-01T19:12:53.936Z,3.30
2022-08-01T19:15:20.260Z,3.33
2022-08-01T19:17:47.205Z,3.33
2022-08-01T19:20:13.522Z,3.10
2022-08-01T19:22:39.925Z,3.53
2022-08-01T19:25:06.412Z,3.28
2022-08-01T19:27:34.196Z,3.40
2022-08-01T19:30:01.848Z,3.40
2022-08-01T19:32:29.121Z,4.05
2022-08-01T19:35:06.261Z,3.58
2022-08-01T19:37:32.902Z,3.00
2022-08-01T19:39:59.519Z,3.40
2022-08-01T19:42:26.326Z,3.42
2022-08-01T19:44:53.077Z,3.30
2022-08-01T19:47:19.614Z,3.38
2022-08-01T19:49:46.452Z,3.55
2022-08-01T19:52:14.847Z,3.30
2022-08-01T19:54:42.531Z,3.00
2022-08-01T19:57:11.798Z,2.90
2022-08-01T19:59:38.291Z,2.90
2022-08-01T20:02:04.970Z,3.15
2022-08-01T20:04:31.649Z,3.03
2022-08-01T20:06:58.010Z,2.90
2022-08-01T20:09:24.543Z,2.92
2022-08-01T20:11:51.906Z,3.00
2022-08-01T20:14:19.943Z,2.63
2022-08-01T20:16:46.754Z,2.50
2022-08-01T20:19:13.282Z,2.75
2022-08-01T20:22:02.953Z,3.20
2022-08-01T20:24:35.073Z,2.70
2022-08-01T20:27:04.951Z,2.92
2022-08-01T20:29:32.353Z,2.85
2022-08-01T20:31:59.560Z,2.53
2022-08-01T20:34:26.016Z,2.47
2022-08-01T20:36:56.559Z,3.03
2022-08-01T20:39:23.403Z,2.78
2022-08-01T20:41:51.562Z,2.58
2022-08-01T20:44:27.206Z,2.25
2022-08-01T20:46:54.197Z,2.47
2022-08-01T20:49:21.187Z,2.60
2022-08-01T20:51:50.515Z,2.60
2022-08-01T20:54:16.967Z,2.95
2022-08-01T20:56:55.610Z,2.65
2022-08-01T20:59:56.281Z,2.70
2022-08-01T21:02:29.835Z,2.53
2022-08-01T21:05:11.911Z,2.47
2022-08-01T21:07:47.350Z,2.40
2022-08-01T21:10:16.044Z,2.38
2022-08-01T21:12:50.387Z,1.90
2022-08-01T21:15:27.050Z,2.55
2022-08-01T21:18:11.844Z,2.13
2022-08-01T21:20:39.613Z,2.15
2022-08-01T21:23:24.953Z,2.40
2022-08-01T21:25:52.282Z,2.10
2022-08-01T21:28:18.818Z,2.45
2022-08-01T21:30:53.778Z,2.67
2022-08-01T21:33:22.708Z,2.40
2022-08-01T21:35:52.117Z,2.65
2022-08-01T21:38:18.864Z,2.42
2022-08-01T21:40:45.305Z,2.70
2022-08-01T21:43:11.677Z,2.72
2022-08-01T21:45:57.346Z,2.65
2022-08-01T21:48:26.720Z,3.00
2022-08-01T21:51:09.173Z,2.83
2022-08-01T21:53:45.202Z,2.58
2022-08-01T21:56:31.789Z,2.65
2022-08-01T22:01:32.467Z,2.50
2022-08-01T22:03:59.281Z,2.50
2022-08-01T22:06:27.809Z,2.78
2022-08-01T22:08:56.356Z,2.30
2022-08-01T22:11:24.804Z,2.75
2022-08-01T22:13:57.018Z,2.60
2022-08-01T22:16:25.225Z,2.28
2022-08-01T22:18:52.085Z,2.40
2022-08-01T22:21:19.034Z,2.20
2022-08-01T22:23:45.445Z,2.28
2022-08-01T22:26:12.122Z,2.70
2022-08-01T22:28:39.127Z,2.83
2022-08-01T22:31:09.045Z,2.50
2022-08-01T22:33:36.495Z,2.50
2022-08-01T22:36:03.875Z,2.53
2022-08-01T22:38:30.200Z,2.45
2022-08-01T22:41:01.109Z,2.50
2022-08-01T22:43:36.390Z,2.60
2022-08-01T22:46:17.135Z,2.60
2022-08-01T22:48:51.520Z,2.75
2022-08-01T22:51:23.949Z,2.90
2022-08-01T22:53:57.885Z,2.50
2022-08-01T22:56:24.240Z,2.75
2022-08-01T22:58:52.205Z,2.63
2022-08-01T23:01:21.659Z,2.58
2022-08-01T23:03:50.069Z,2.38
2022-08-01T23:06:39.700Z,2.40
2022-08-01T23:09:07.012Z,2.30
2022-08-01T23:11:33.780Z,2.50
2022-08-01T23:14:02.331Z,2.75
2022-08-01T23:16:29.712Z,2.58
2022-08-01T23:18:58.362Z,2.50
2022-08-01T23:21:25.009Z,2.25
2022-08-01T23:23:53.537Z,2.60
2022-08-01T23:26:20.364Z,2.10
2022-08-01T23:28:47.037Z,2.45
2022-08-01T23:31:13.933Z,2.40
2022-08-01T23:33:40.302Z,2.38
2022-08-01T23:36:06.677Z,2.38
2022-08-01T23:38:33.032Z,2.25
2022-08-01T23:40:59.344Z,2.58
2022-08-01T23:43:25.778Z,2.55
2022-08-01T23:46:04.695Z,2.35
2022-08-01T23:48:32.864Z,2.42
2022-08-01T23:50:59.172Z,2.80
2022-08-01T23:53:30.705Z,2.53
2022-08-01T23:55:58.047Z,2.50
2022-08-01T23:58:24.393Z,2.50
